createdAt,value
2022-11-02T00:02:02.268Z,9.50
2022-11-02T00:04:29.065Z,9.50
2022-11-02T00:06:55.746Z,9.60
2022-11-02T00:09:22.369Z,9.60
2022-11-02T00:11:49.016Z,9.60
2022-11-02T00:14:15.800Z,9.60
2022-11-02T00:16:42.480Z,9.60
2022-11-02T00:19:09.903Z,9.60
2022-11-02T00:21:37.664Z,9.70
2022-11-02T00:24:05.825Z,9.60
2022-11-02T00:26:34.761Z,9.70
2022-11-02T00:29:01.584Z,9.70
2022-11-02T00:31:28.313Z,9.60
2022-11-02T00:33:54.987Z,9.70
2022-11-02T00:36:24.056Z,9.70
2022-11-02T00:38:51.366Z,9.70
2022-11-02T00:41:19.773Z,9.70
2022-11-02T00:43:46.560Z,9.70
2022-11-02T00:46:14.439Z,9.70
2022-11-02T00:48:41.884Z,9.70
2022-11-02T00:51:09.587Z,9.70
2022-11-02T00:53:36.388Z,9.80
2022-11-02T00:56:03.433Z,9.80
2022-11-02T00:58:30.162Z,9.80
2022-11-02T01:00:57.750Z,9.80
2022-11-02T01:03:25.658Z,9.80
2022-11-02T01:05:52.310Z,9.90
2022-11-02T01:08:18.940Z,9.90
2022-11-02T01:10:48.240Z,9.90
2022-11-02T01:13:16.944Z,9.90
2022-11-02T01:15:43.578Z,10.00
2022-11-02T01:18:10.286Z,10.00
2022-11-02T01:20:36.961Z,10.00
2022-11-02T01:23:03.670Z,10.00
2022-11-02T01:25:30.285Z,10.00
2022-11-02T01:27:56.964Z,10.00
2022-11-02T01:30:23.584Z,10.00
2022-11-02T01:32:50.228Z,10.00
2022-11-02T01:35:16.978Z,10.00
2022-11-02T01:37:43.542Z,10.00
2022-11-02T01:40:10.890Z,10.00
2022-11-02T01:42:37.584Z,10.00
2022-11-02T01:45:04.531Z,10.00
2022-11-02T01:47:35.302Z,10.00
2022-11-02T01:50:08.484Z,10.00
2022-11-02T01:52:38.279Z,10.00
2022-11-02T01:55:07.793Z,10.00
2022-11-02T01:57:36.603Z,10.00
2022-11-02T02:00:08.820Z,10.00
2022-11-02T02:02:54.367Z,10.00
2022-11-02T02:05:24.121Z,10.00
2022-11-02T02:07:52.148Z,10.00
2022-11-02T02:10:19.241Z,10.00
2022-11-02T02:12:47.512Z,10.10
2022-11-02T02:15:17.799Z,10.10
2022-11-02T02:17:59.063Z,10.10
2022-11-02T02:20:44.610Z,10.10
2022-11-02T02:23:26.340Z,10.20
2022-11-02T02:26:13.014Z,10.20
2022-11-02T02:28:52.748Z,10.20
2022-11-02T02:31:42.943Z,10.20
2022-11-02T02:34:21.673Z,10.20
2022-11-02T02:37:29.807Z,10.20
2022-11-02T02:40:01.999Z,10.30
2022-11-02T02:42:47.156Z,10.30
2022-11-02T02:45:45.829Z,10.30
2022-11-02T02:48:19.874Z,10.30
2022-11-02T02:50:57.463Z,10.30
2022-11-02T02:53:33.941Z,10.20
2022-11-02T02:56:03.989Z,10.30
2022-11-02T02:58:36.896Z,10.20
2022-11-02T03:01:06.002Z,10.20
2022-11-02T03:03:35.780Z,10.20
2022-11-02T03:06:32.869Z,10.20
2022-11-02T03:09:24.590Z,10.30
2022-11-02T03:12:04.306Z,10.20
2022-11-02T03:14:40.784Z,10.30
2022-11-02T03:17:28.372Z,10.30
2022-11-02T03:20:21.629Z,10.30
2022-11-02T03:23:30.600Z,10.30
2022-11-02T03:26:04.308Z,10.40
2022-11-02T03:28:48.785Z,10.40
2022-11-02T03:31:30.061Z,10.40
2022-11-02T03:34:17.017Z,10.40
2022-11-02T03:36:53.999Z,10.40
2022-11-02T03:39:30.104Z,10.40
2022-11-02T03:42:00.786Z,10.50
2022-11-02T03:44:30.353Z,10.50
2022-11-02T03:47:00.182Z,10.50
2022-11-02T03:49:29.850Z,10.50
2022-11-02T03:52:01.756Z,10.50
2022-11-02T03:54:43.361Z,10.50
2022-11-02T03:57:16.707Z,10.50
2022-11-02T03:59:44.652Z,10.50
2022-11-02T04:02:13.423Z,10.50
2022-11-02T04:04:51.165Z,10.50
2022-11-02T04:07:56.803Z,10.50
2022-11-02T04:10:26.333Z,10.50
2022-11-02T04:13:11.892Z,10.50
2022-11-02T04:15:38.624Z,10.50
2022-11-02T04:18:24.026Z,10.50
2022-11-02T04:20:51.220Z,10.50
2022-11-02T04:23:37.577Z,10.50
2022-11-02T04:26:06.128Z,10.50
2022-11-02T04:28:43.554Z,10.60
2022-11-02T04:31:12.933Z,10.60
2022-11-02T04:33:41.258Z,10.60
2022-11-02T04:36:14.331Z,10.60
2022-11-02T04:38:41.585Z,10.60
2022-11-02T04:41:37.913Z,10.60
2022-11-02T04:44:14.367Z,10.60
2022-11-02T04:46:44.489Z,10.60
2022-11-02T04:49:14.186Z,10.60
2022-11-02T04:51:47.221Z,10.60
2022-11-02T04:54:15.695Z,10.60
2022-11-02T04:56:43.896Z,10.70
2022-11-02T04:59:11.595Z,10.70
2022-11-02T05:01:38.635Z,10.70
2022-11-02T05:04:06.036Z,10.70
2022-11-02T05:06:35.232Z,10.70
2022-11-02T05:09:02.881Z,10.70
2022-11-02T05:11:31.379Z,10.70
2022-11-02T05:13:58.276Z,10.70
2022-11-02T05:16:25.015Z,10.70
2022-11-02T05:18:53.952Z,10.70
2022-11-02T05:21:22.289Z,10.80
2022-11-02T05:23:50.274Z,10.80
2022-11-02T05:26:17.660Z,10.80
2022-11-02T05:28:47.293Z,10.80
2022-11-02T05:31:14.024Z,10.80
2022-11-02T05:33:41.610Z,10.80
2022-11-02T05:36:13.495Z,10.80
2022-11-02T05:38:43.777Z,10.80
2022-11-02T05:41:10.573Z,10.80
2022-11-02T05:43:39.325Z,10.80
2022-11-02T05:46:09.892Z,10.80
2022-11-02T05:48:36.626Z,10.80
2022-11-02T05:51:04.325Z,10.80
2022-11-02T05:53:33.664Z,10.80
2022-11-02T05:56:01.851Z,10.80
2022-11-02T05:58:29.506Z,10.80
2022-11-02T06:00:59.583Z,10.90
2022-11-02T06:03:26.576Z,10.90
2022-11-02T06:06:04.563Z,10.90
2022-11-02T06:08:35.887Z,10.90
2022-11-02T06:11:12.884Z,10.90
2022-11-02T06:13:41.247Z,10.90
2022-11-02T06:16:10.203Z,10.90
2022-11-02T06:18:37.937Z,10.90
2022-11-02T06:21:04.986Z,10.90
2022-11-02T06:23:31.840Z,10.90
2022-11-02T06:25:59.315Z,10.90
2022-11-02T06:28:26.701Z,10.90
2022-11-02T06:30:54.274Z,10.90
2022-11-02T06:33:21.153Z,10.90
2022-11-02T06:35:52.142Z,10.90
2022-11-02T06:38:18.902Z,10.90
2022-11-02T06:40:58.511Z,10.90
2022-11-02T06:43:26.294Z,10.90
2022-11-02T06:45:59.476Z,10.90
2022-11-02T06:48:31.512Z,10.90
2022-11-02T06:51:01.926Z,10.90
2022-11-02T06:53:28.629Z,10.90
2022-11-02T06:55:56.779Z,10.90
2022-11-02T06:58:24.512Z,11.00
2022-11-02T07:00:56.667Z,11.00
2022-11-02T07:03:23.616Z,11.00
2022-11-02T07:05:51.764Z,11.10
2022-11-02T07:08:19.533Z,11.10
2022-11-02T07:10:46.793Z,11.10
2022-11-02T07:13:13.817Z,11.20
2022-11-02T07:15:40.712Z,11.20
2022-11-02T07:18:08.500Z,11.20
2022-11-02T07:20:35.733Z,11.20
2022-11-02T07:23:04.732Z,11.30
2022-11-02T07:25:33.426Z,11.30
2022-11-02T07:28:01.666Z,11.30
2022-11-02T07:30:33.084Z,11.30
2022-11-02T07:33:00.084Z,11.30
2022-11-02T07:35:27.580Z,11.30
2022-11-02T07:37:59.855Z,11.40
2022-11-02T07:40:27.788Z,11.40
2022-11-02T07:42:55.075Z,11.40
2022-11-02T07:45:30.688Z,11.50
2022-11-02T07:47:57.325Z,11.50
2022-11-02T07:50:27.031Z,11.40
2022-11-02T07:52:56.254Z,11.50
2022-11-02T07:55:25.140Z,11.50
2022-11-02T07:57:59.670Z,11.50
2022-11-02T08:00:32.078Z,11.50
2022-11-02T08:03:01.008Z,11.50
2022-11-02T08:05:29.377Z,11.60
2022-11-02T08:08:00.351Z,11.60
2022-11-02T08:10:29.388Z,11.60
2022-11-02T08:12:56.784Z,11.60
2022-11-02T08:15:23.944Z,11.70
2022-11-02T08:18:04.884Z,11.70
2022-11-02T08:20:32.359Z,11.70
2022-11-02T08:22:59.090Z,11.70
2022-11-02T08:25:25.822Z,11.80
2022-11-02T08:27:55.594Z,11.80
2022-11-02T08:30:22.305Z,11.90
2022-11-02T08:32:52.631Z,11.80
2022-11-02T08:35:22.381Z,11.90
2022-11-02T08:37:55.028Z,11.90
2022-11-02T08:40:22.021Z,12.00
2022-11-02T08:42:48.685Z,12.00
2022-11-02T08:45:15.539Z,12.00
2022-11-02T08:47:42.837Z,12.00
2022-11-02T08:50:10.479Z,12.00
2022-11-02T08:52:40.945Z,12.00
2022-11-02T08:55:08.172Z,12.00
2022-11-02T08:57:45.401Z,12.00
2022-11-02T09:00:13.373Z,12.00
2022-11-02T09:02:40.302Z,12.00
2022-11-02T09:05:07.337Z,12.00
2022-11-02T09:07:34.014Z,12.00
2022-11-02T09:10:00.720Z,12.00
2022-11-02T09:12:27.379Z,12.00
2022-11-02T09:14:54.237Z,12.00
2022-11-02T09:17:20.852Z,12.00
2022-11-02T09:19:47.559Z,12.00
2022-11-02T09:22:14.179Z,12.00
2022-11-02T09:24:40.806Z,12.00
2022-11-02T09:27:07.444Z,12.00
2022-11-02T09:29:34.064Z,12.10
2022-11-02T09:32:00.706Z,12.00
2022-11-02T09:34:27.389Z,12.10
2022-11-02T09:36:54.003Z,12.10
2022-11-02T09:39:23.784Z,12.20
2022-11-02T09:42:22.493Z,12.20
2022-11-02T09:45:01.125Z,12.30
2022-11-02T09:48:10.609Z,12.30
2022-11-02T09:50:22.024Z,12.30
2022-11-02T09:52:57.927Z,12.30
2022-11-02T09:55:32.132Z,12.30
2022-11-02T09:58:12.534Z,12.30
2022-11-02T10:00:41.494Z,12.30
2022-11-02T10:03:37.412Z,12.40
2022-11-02T10:06:25.479Z,12.40
2022-11-02T10:08:57.981Z,12.40
2022-11-02T10:11:45.065Z,12.50
2022-11-02T10:14:20.515Z,12.50
2022-11-02T10:17:26.119Z,12.50
2022-11-02T10:19:58.751Z,12.50
2022-11-02T10:22:32.160Z,12.60
2022-11-02T10:25:03.742Z,12.60
2022-11-02T10:27:36.788Z,12.50
2022-11-02T10:30:12.149Z,12.50
2022-11-02T10:32:40.771Z,12.50
2022-11-02T10:35:51.385Z,12.50
2022-11-02T10:38:20.505Z,12.50
2022-11-02T10:41:03.794Z,12.50
2022-11-02T10:43:55.142Z,12.50
2022-11-02T10:46:21.956Z,12.50
2022-11-02T10:49:13.845Z,12.50
2022-11-02T10:51:41.149Z,12.50
2022-11-02T10:54:17.883Z,12.50
2022-11-02T10:56:50.194Z,12.60
2022-11-02T10:59:19.940Z,12.60
2022-11-02T11:02:05.081Z,12.60
2022-11-02T11:04:33.164Z,12.70
2022-11-02T11:07:16.764Z,12.70
2022-11-02T11:09:57.408Z,12.70
2022-11-02T11:12:31.204Z,12.80
2022-11-02T11:20:39.480Z,12.80
2022-11-02T11:23:18.040Z,12.70
2022-11-02T11:25:56.322Z,12.70
2022-11-02T11:28:30.186Z,12.70
2022-11-02T11:31:14.409Z,12.70
2022-11-02T11:33:58.072Z,12.70
2022-11-02T11:36:34.320Z,12.70
2022-11-02T11:39:26.362Z,12.70
2022-11-02T11:41:53.140Z,12.70
2022-11-02T11:44:21.060Z,12.60
2022-11-02T11:46:54.496Z,12.60
2022-11-02T11:49:41.652Z,12.60
2022-11-02T11:52:20.123Z,12.60
2022-11-02T11:54:57.912Z,12.60
2022-11-02T11:57:29.187Z,12.60
2022-11-02T11:59:59.102Z,12.70
2022-11-02T12:02:32.207Z,12.70
2022-11-02T12:05:20.740Z,12.70
2022-11-02T12:08:13.949Z,12.60
2022-11-02T12:11:03.907Z,12.70
2022-11-02T12:13:55.873Z,12.70
2022-11-02T12:16:29.296Z,12.70
2022-11-02T12:19:20.091Z,12.70
2022-11-02T12:22:02.320Z,12.70
2022-11-02T12:25:09.800Z,12.80
2022-11-02T12:28:05.925Z,12.80
2022-11-02T12:30:40.754Z,12.90
2022-11-02T12:33:40.522Z,12.90
2022-11-02T12:36:34.836Z,13.00
2022-11-02T12:39:08.408Z,13.10
2022-11-02T12:42:09.053Z,13.10
2022-11-02T12:45:24.247Z,13.10
2022-11-02T12:48:02.507Z,13.20
2022-11-02T12:50:34.522Z,13.30
2022-11-02T12:53:04.465Z,13.40
2022-11-02T12:55:38.713Z,13.50
2022-11-02T12:58:12.679Z,13.50
2022-11-02T13:00:43.572Z,13.60
2022-11-02T13:03:33.254Z,13.70
2022-11-02T13:06:06.494Z,13.70
2022-11-02T13:08:43.397Z,13.90
2022-11-02T13:11:21.275Z,14.00
2022-11-02T13:13:54.840Z,14.20
2022-11-02T13:16:46.303Z,14.40
2022-11-02T13:19:19.341Z,14.60
2022-11-02T13:21:54.657Z,14.80
2022-11-02T13:24:31.969Z,15.10
2022-11-02T13:29:54.280Z,15.50
2022-11-02T13:32:33.952Z,15.70
2022-11-02T13:35:12.632Z,15.80
2022-11-02T13:37:44.017Z,15.90
2022-11-02T13:40:24.136Z,16.00
2022-11-02T13:43:05.612Z,16.20
2022-11-02T13:46:08.870Z,16.40
2022-11-02T13:49:00.262Z,16.60
2022-11-02T13:51:38.199Z,16.70
2022-11-02T13:54:35.818Z,16.90
2022-11-02T13:57:02.961Z,17.00
2022-11-02T13:59:43.188Z,17.10
2022-11-02T14:02:15.777Z,17.30
2022-11-02T14:04:44.309Z,17.40
2022-11-02T14:07:38.574Z,17.50
2022-11-02T14:10:15.120Z,17.60
2022-11-02T14:12:49.040Z,17.80
2022-11-02T14:15:15.729Z,17.90
2022-11-02T14:18:01.969Z,18.10
2022-11-02T14:20:41.002Z,18.30
2022-11-02T14:23:19.717Z,18.40
2022-11-02T14:25:52.851Z,18.50
2022-11-02T14:28:22.551Z,18.50
2022-11-02T14:30:57.469Z,18.40
2022-11-02T14:33:45.968Z,18.20
2022-11-02T14:36:19.497Z,17.80
2022-11-02T14:39:23.869Z,17.50
2022-11-02T14:42:07.940Z,17.20
2022-11-02T14:44:59.023Z,16.90
2022-11-02T14:47:31.361Z,16.50
2022-11-02T14:50:06.284Z,16.20
2022-11-02T14:52:35.543Z,15.80
2022-11-02T14:55:04.390Z,15.40
2022-11-02T14:57:42.649Z,15.10
2022-11-02T15:00:20.715Z,14.70
2022-11-02T15:02:48.298Z,14.50
2022-11-02T15:05:23.544Z,14.20
2022-11-02T15:08:04.715Z,14.00
2022-11-02T15:10:31.364Z,13.80
2022-11-02T15:13:22.772Z,13.70
2022-11-02T15:15:55.219Z,13.60
2022-11-02T15:18:30.849Z,13.40
2022-11-02T15:21:12.848Z,13.30
2022-11-02T15:23:54.072Z,13.20
2022-11-02T15:26:48.211Z,13.10
2022-11-02T15:29:42.613Z,13.00
2022-11-02T15:32:22.307Z,12.90
2022-11-02T15:34:51.586Z,12.70
2022-11-02T15:37:28.984Z,12.60
2022-11-02T15:40:00.461Z,12.50
2022-11-02T15:42:40.761Z,12.40
2022-11-02T15:45:26.823Z,12.30
2022-11-02T15:48:16.724Z,12.20
2022-11-02T15:51:16.353Z,12.00
2022-11-02T15:54:06.134Z,11.80
2022-11-02T15:56:51.613Z,11.60
2022-11-02T15:59:39.652Z,11.50
2022-11-02T16:02:06.391Z,11.40
2022-11-02T16:04:34.870Z,11.20
2022-11-02T16:07:09.094Z,11.10
2022-11-02T16:09:39.295Z,11.00
2022-11-02T16:12:18.982Z,10.90
2022-11-02T16:14:58.900Z,10.80
2022-11-02T16:17:28.317Z,10.70
2022-11-02T16:20:13.702Z,10.60
2022-11-02T16:22:41.258Z,10.50
2022-11-02T16:25:18.580Z,10.50
2022-11-02T16:27:45.263Z,10.40
2022-11-02T16:30:22.357Z,10.30
2022-11-02T16:33:05.312Z,10.30
2022-11-02T16:35:32.263Z,10.20
2022-11-02T16:37:59.127Z,10.20
2022-11-02T16:40:25.910Z,10.20
2022-11-02T16:42:53.403Z,10.10
2022-11-02T16:45:31.642Z,10.10
2022-11-02T16:47:58.593Z,10.00
2022-11-02T16:50:27.052Z,9.90
2022-11-02T16:52:59.246Z,9.90
2022-11-02T16:55:36.815Z,9.90
2022-11-02T16:58:06.269Z,9.80
2022-11-02T17:00:33.801Z,9.80
2022-11-02T17:03:08.785Z,9.70
2022-11-02T17:05:40.507Z,9.70
2022-11-02T17:08:19.088Z,9.70
2022-11-02T17:10:45.932Z,9.60
2022-11-02T17:13:20.475Z,9.60
2022-11-02T17:15:49.793Z,9.50
2022-11-02T17:18:26.957Z,9.50
2022-11-02T17:21:12.626Z,9.50
2022-11-02T17:23:45.055Z,9.40
2022-11-02T17:26:26.589Z,9.40
2022-11-02T17:29:02.245Z,9.40
2022-11-02T17:31:41.041Z,9.30
2022-11-02T17:34:10.317Z,9.30
2022-11-02T17:36:44.644Z,9.20
2022-11-02T17:39:14.472Z,9.20
2022-11-02T17:42:01.142Z,9.20
2022-11-02T17:44:27.792Z,9.20
2022-11-02T17:46:55.195Z,9.10
2022-11-02T17:49:22.078Z,9.10
2022-11-02T17:51:48.682Z,9.10
2022-11-02T17:54:15.405Z,9.00
2022-11-02T17:56:42.074Z,9.00
2022-11-02T17:59:08.755Z,8.90
2022-11-02T18:01:35.739Z,8.90
2022-11-02T18:04:02.511Z,8.90
2022-11-02T18:06:29.718Z,8.80
2022-11-02T18:09:11.403Z,8.80
2022-11-02T18:11:38.069Z,8.80
2022-11-02T18:14:04.810Z,8.80
2022-11-02T18:16:32.151Z,8.80
2022-11-02T18:18:58.848Z,8.70
2022-11-02T18:21:25.544Z,8.70
2022-11-02T18:23:52.244Z,8.60
2022-11-02T18:26:19.017Z,8.60
2022-11-02T18:28:45.705Z,8.60
2022-11-02T18:31:12.666Z,8.50
2022-11-02T18:33:39.384Z,8.50
2022-11-02T18:36:08.247Z,8.50
2022-11-02T18:38:35.427Z,8.50
2022-11-02T18:41:27.873Z,8.50
2022-11-02T18:44:02.235Z,8.40
2022-11-02T18:46:32.546Z,8.40
2022-11-02T18:48:59.489Z,8.30
2022-11-02T18:51:26.631Z,8.30
2022-11-02T18:53:58.636Z,8.30
2022-11-02T18:56:25.710Z,8.30
2022-11-02T18:58:53.731Z,8.30
2022-11-02T19:01:22.157Z,8.20
2022-11-02T19:03:51.036Z,8.10
2022-11-02T19:06:37.406Z,8.10
2022-11-02T19:09:18.082Z,8.10
2022-11-02T19:12:09.540Z,8.00
2022-11-02T19:14:39.151Z,8.00
2022-11-02T19:17:07.185Z,8.00
2022-11-02T19:19:34.795Z,8.00
2022-11-02T19:22:02.465Z,8.00
2022-11-02T19:24:29.409Z,7.90
2022-11-02T19:26:56.122Z,7.90
2022-11-02T19:29:22.915Z,7.90
2022-11-02T19:31:49.500Z,7.80
2022-11-02T19:34:16.274Z,7.80
2022-11-02T19:36:42.841Z,7.70
2022-11-02T19:39:10.219Z,7.70
2022-11-02T19:41:38.468Z,7.60
2022-11-02T19:44:06.353Z,7.60
2022-11-02T19:46:33.698Z,7.60
2022-11-02T19:49:00.439Z,7.50
2022-11-02T19:51:29.381Z,7.50
2022-11-02T19:53:59.061Z,7.50
2022-11-02T19:56:30.283Z,7.50
2022-11-02T19:58:57.624Z,7.40
2022-11-02T20:01:26.786Z,7.40
2022-11-02T20:03:54.822Z,7.40
2022-11-02T20:06:43.112Z,7.40
2022-11-02T20:09:17.934Z,7.40
2022-11-02T20:11:46.253Z,7.40
2022-11-02T20:14:15.274Z,7.40
2022-11-02T20:16:42.413Z,7.30
2022-11-02T20:19:09.447Z,7.30
2022-11-02T20:21:41.508Z,7.30
2022-11-02T20:24:10.169Z,7.20
2022-11-02T20:26:38.723Z,7.20
2022-11-02T20:29:06.295Z,7.20
2022-11-02T20:31:38.332Z,7.20
2022-11-02T20:34:07.438Z,7.20
2022-11-02T20:36:34.817Z,7.10
2022-11-02T20:39:04.550Z,7.10
2022-11-02T20:41:31.607Z,7.10
2022-11-02T20:43:58.325Z,7.10
2022-11-02T20:46:38.988Z,7.00
2022-11-02T20:49:20.109Z,7.00
2022-11-02T20:51:55.059Z,7.00
2022-11-02T20:54:22.196Z,7.00
2022-11-02T20:56:49.619Z,7.00
2022-11-02T20:59:16.536Z,7.00
2022-11-02T21:01:43.207Z,7.00
2022-11-02T21:04:12.739Z,6.90
2022-11-02T21:06:42.097Z,6.90
2022-11-02T21:09:12.029Z,6.90
2022-11-02T21:11:58.171Z,6.90
2022-11-02T21:14:25.110Z,6.80
2022-11-02T21:16:51.692Z,6.80
2022-11-02T21:19:18.357Z,6.80
2022-11-02T21:21:45.111Z,6.80
2022-11-02T21:24:12.029Z,6.80
2022-11-02T21:26:38.637Z,6.80
2022-11-02T21:29:05.431Z,6.70
2022-11-02T21:31:32.078Z,6.70
2022-11-02T21:33:58.796Z,6.70
2022-11-02T21:36:25.361Z,6.70
2022-11-02T21:38:52.066Z,6.60
2022-11-02T21:41:21.404Z,6.60
2022-11-02T21:43:51.689Z,6.60
2022-11-02T21:46:19.561Z,6.60
2022-11-02T21:48:46.225Z,6.50
2022-11-02T21:51:18.651Z,6.50
2022-11-02T21:53:47.269Z,6.50
2022-11-02T21:56:19.792Z,6.50
2022-11-02T21:58:47.661Z,6.50
2022-11-02T22:01:34.786Z,6.50
2022-11-02T22:04:02.313Z,6.50
2022-11-02T22:06:31.551Z,6.50
2022-11-02T22:08:59.608Z,6.50
2022-11-02T22:11:27.176Z,6.50
2022-11-02T22:13:55.814Z,6.50
2022-11-02T22:16:31.952Z,6.50
2022-11-02T22:19:00.336Z,6.50
2022-11-02T22:21:29.294Z,6.50
2022-11-02T22:23:56.644Z,6.50
2022-11-02T22:26:25.684Z,6.50
2022-11-02T22:28:52.957Z,6.50
2022-11-02T22:31:22.156Z,6.50
2022-11-02T22:33:51.804Z,6.50
2022-11-02T22:36:21.133Z,6.50
2022-11-02T22:38:48.488Z,6.60
2022-11-02T22:41:15.903Z,6.60
2022-11-02T22:43:42.849Z,6.60
2022-11-02T22:46:10.350Z,6.60
2022-11-02T22:48:37.073Z,6.60
2022-11-02T22:51:05.849Z,6.60
2022-11-02T22:53:33.065Z,6.60
2022-11-02T22:56:12.360Z,6.60
2022-11-02T22:58:40.814Z,6.70
2022-11-02T23:01:09.813Z,6.70
2022-11-02T23:03:37.461Z,6.70
2022-11-02T23:06:06.460Z,6.70
2022-11-02T23:08:38.931Z,6.70
2022-11-02T23:11:22.515Z,6.70
2022-11-02T23:13:57.621Z,6.60
2022-11-02T23:16:31.538Z,6.60
2022-11-02T23:19:27.785Z,6.50
2022-11-02T23:22:27.235Z,6.50
2022-11-02T23:25:13.705Z,6.50
2022-11-02T23:28:12.499Z,6.50
2022-11-02T23:30:57.920Z,6.50
2022-11-02T23:33:29.549Z,6.50
2022-11-02T23:36:12.308Z,6.50
2022-11-02T23:38:58.775Z,6.50
2022-11-02T23:41:25.806Z,6.50
2022-11-02T23:44:11.118Z,6.50
2022-11-02T23:46:42.850Z,6.50
2022-11-02T23:49:10.196Z,6.50
2022-11-02T23:51:55.852Z,6.50
2022-11-02T23:54:41.453Z,6.50
2022-11-02T23:57:08.223Z,6.50
2022-11-02T23:59:34.878Z,6.50
